sensor_id;sensor_type;location;lat;lon;timestamp;temperature;humidity
57026;DHT22;43961;52.940;6.834;2022-07-30T00:00:39;15.40;99.90
57026;DHT22;43961;52.940;6.834;2022-07-30T00:03:05;15.30;99.90
57026;DHT22;43961;52.940;6.834;2022-07-30T00:05:31;15.30;99.90
57026;DHT22;43961;52.940;6.834;2022-07-30T00:07:57;15.30;99.90
57026;DHT22;43961;52.940;6.834;2022-07-30T00:10:22;15.30;99.90
57026;DHT22;43961;52.940;6.834;2022-07-30T00:12:48;15.00;99.90
57026;DHT22;43961;52.940;6.834;2022-07-30T00:15:14;15.00;99.90
57026;DHT22;43961;52.940;6.834;2022-07-30T00:17:40;15.00;99.90
57026;DHT22;43961;52.940;6.834;2022-07-30T00:20:06;14.90;99.90
57026;DHT22;43961;52.940;6.834;2022-07-30T00:22:32;15.00;99.90
57026;DHT22;43961;52.940;6.834;2022-07-30T00:24:57;14.90;99.90
57026;DHT22;43961;52.940;6.834;2022-07-30T00:27:23;14.90;99.90
57026;DHT22;43961;52.940;6.834;2022-07-30T00:29:49;14.90;99.90
57026;DHT22;43961;52.940;6.834;2022-07-30T00:32:15;14.90;99.90
57026;DHT22;43961;52.940;6.834;2022-07-30T00:34:41;14.90;99.90
57026;DHT22;43961;52.940;6.834;2022-07-30T00:37:06;14.80;99.90
57026;DHT22;43961;52.940;6.834;2022-07-30T00:39:32;14.80;99.90
57026;DHT22;43961;52.940;6.834;2022-07-30T00:42:01;14.80;99.90
57026;DHT22;43961;52.940;6.834;2022-07-30T00:44:27;14.70;99.90
57026;DHT22;43961;52.940;6.834;2022-07-30T00:46:54;14.70;99.90
57026;DHT22;43961;52.940;6.834;2022-07-30T00:49:21;14.60;99.90
57026;DHT22;43961;52.940;6.834;2022-07-30T00:51:48;14.40;99.90
57026;DHT22;43961;52.940;6.834;2022-07-30T00:54:13;14.30;99.90
57026;DHT22;43961;52.940;6.834;2022-07-30T00:56:40;14.20;99.90
57026;DHT22;43961;52.940;6.834;2022-07-30T00:59:07;14.20;99.90
57026;DHT22;43961;52.940;6.834;2022-07-30T01:01:36;14.20;99.90
57026;DHT22;43961;52.940;6.834;2022-07-30T01:04:02;14.10;99.90
57026;DHT22;43961;52.940;6.834;2022-07-30T01:06:28;14.10;99.90
57026;DHT22;43961;52.940;6.834;2022-07-30T01:08:53;14.10;99.90
57026;DHT22;43961;52.940;6.834;2022-07-30T01:11:20;14.10;99.90
57026;DHT22;43961;52.940;6.834;2022-07-30T01:13:49;14.20;99.90
57026;DHT22;43961;52.940;6.834;2022-07-30T01:16:15;14.20;99.90
57026;DHT22;43961;52.940;6.834;2022-07-30T01:18:41;14.20;99.90
57026;DHT22;43961;52.940;6.834;2022-07-30T01:21:31;14.10;99.90
57026;DHT22;43961;52.940;6.834;2022-07-30T01:24:32;14.00;99.90
57026;DHT22;43961;52.940;6.834;2022-07-30T01:27:00;13.90;99.90
57026;DHT22;43961;52.940;6.834;2022-07-30T01:29:27;14.00;99.90
57026;DHT22;43961;52.940;6.834;2022-07-30T01:31:55;14.00;99.90
57026;DHT22;43961;52.940;6.834;2022-07-30T01:34:30;14.00;99.90
57026;DHT22;43961;52.940;6.834;2022-07-30T01:36:58;14.00;99.90
57026;DHT22;43961;52.940;6.834;2022-07-30T01:39:25;14.00;99.90
57026;DHT22;43961;52.940;6.834;2022-07-30T01:41:53;14.00;99.90
57026;DHT22;43961;52.940;6.834;2022-07-30T01:44:21;14.00;99.90
57026;DHT22;43961;52.940;6.834;2022-07-30T01:46:48;14.00;99.90
57026;DHT22;43961;52.940;6.834;2022-07-30T01:49:14;14.00;99.90
57026;DHT22;43961;52.940;6.834;2022-07-30T01:51:47;14.00;99.90
57026;DHT22;43961;52.940;6.834;2022-07-30T01:54:17;14.00;99.90
57026;DHT22;43961;52.940;6.834;2022-07-30T01:56:43;14.00;99.90
57026;DHT22;43961;52.940;6.834;2022-07-30T01:59:11;14.00;99.90
57026;DHT22;43961;52.940;6.834;2022-07-30T02:01:37;14.00;99.90
57026;DHT22;43961;52.940;6.834;2022-07-30T02:04:03;13.90;99.90
57026;DHT22;43961;52.940;6.834;2022-07-30T02:07:45;13.90;99.90
57026;DHT22;43961;52.940;6.834;2022-07-30T02:09:53;13.90;99.90
57026;DHT22;43961;52.940;6.834;2022-07-30T02:12:21;13.90;99.90
57026;DHT22;43961;52.940;6.834;2022-07-30T02:18:19;13.80;99.90
57026;DHT22;43961;52.940;6.834;2022-07-30T02:20:50;13.70;99.90
57026;DHT22;43961;52.940;6.834;2022-07-30T02:23:19;13.70;99.90
57026;DHT22;43961;52.940;6.834;2022-07-30T02:25:51;13.70;99.90
57026;DHT22;43961;52.940;6.834;2022-07-30T02:28:19;13.70;99.90
57026;DHT22;43961;52.940;6.834;2022-07-30T02:30:52;13.70;99.90
57026;DHT22;43961;52.940;6.834;2022-07-30T02:33:21;13.60;99.90
57026;DHT22;43961;52.940;6.834;2022-07-30T02:35:49;13.60;99.90
57026;DHT22;43961;52.940;6.834;2022-07-30T02:38:17;13.60;99.90
57026;DHT22;43961;52.940;6.834;2022-07-30T02:40:46;13.50;99.90
57026;DHT22;43961;52.940;6.834;2022-07-30T02:43:14;13.60;99.90
57026;DHT22;43961;52.940;6.834;2022-07-30T02:45:42;13.50;99.90
57026;DHT22;43961;52.940;6.834;2022-07-30T02:48:11;13.50;99.90
57026;DHT22;43961;52.940;6.834;2022-07-30T02:50:38;13.50;99.90
57026;DHT22;43961;52.940;6.834;2022-07-30T02:53:08;13.50;99.90
57026;DHT22;43961;52.940;6.834;2022-07-30T02:55:43;13.40;99.90
57026;DHT22;43961;52.940;6.834;2022-07-30T02:58:10;13.40;99.90
57026;DHT22;43961;52.940;6.834;2022-07-30T03:00:41;13.30;99.90
57026;DHT22;43961;52.940;6.834;2022-07-30T03:03:08;13.30;99.90
57026;DHT22;43961;52.940;6.834;2022-07-30T03:05:36;13.30;99.90
57026;DHT22;43961;52.940;6.834;2022-07-30T03:08:02;13.40;99.90
57026;DHT22;43961;52.940;6.834;2022-07-30T03:10:29;13.30;99.90
57026;DHT22;43961;52.940;6.834;2022-07-30T03:12:57;13.30;99.90
57026;DHT22;43961;52.940;6.834;2022-07-30T03:15:24;13.30;99.90
57026;DHT22;43961;52.940;6.834;2022-07-30T03:17:52;13.30;99.90
57026;DHT22;43961;52.940;6.834;2022-07-30T03:20:23;13.20;99.90
57026;DHT22;43961;52.940;6.834;2022-07-30T03:22:52;13.20;99.90
57026;DHT22;43961;52.940;6.834;2022-07-30T03:25:22;13.20;99.90
57026;DHT22;43961;52.940;6.834;2022-07-30T03:27:49;13.20;99.90
57026;DHT22;43961;52.940;6.834;2022-07-30T03:30:16;13.20;99.90
57026;DHT22;43961;52.940;6.834;2022-07-30T03:32:42;13.20;99.90
57026;DHT22;43961;52.940;6.834;2022-07-30T03:35:09;13.10;99.90
57026;DHT22;43961;52.940;6.834;2022-07-30T03:37:38;13.10;99.90
57026;DHT22;43961;52.940;6.834;2022-07-30T03:40:05;13.10;99.90
57026;DHT22;43961;52.940;6.834;2022-07-30T03:42:32;13.10;99.90
57026;DHT22;43961;52.940;6.834;2022-07-30T03:44:59;13.10;99.90
57026;DHT22;43961;52.940;6.834;2022-07-30T03:47:26;13.00;99.90
57026;DHT22;43961;52.940;6.834;2022-07-30T03:49:52;13.00;99.90
57026;DHT22;43961;52.940;6.834;2022-07-30T03:52:18;13.00;99.90
57026;DHT22;43961;52.940;6.834;2022-07-30T03:54:45;13.00;99.90
57026;DHT22;43961;52.940;6.834;2022-07-30T03:57:11;13.00;99.90
57026;DHT22;43961;52.940;6.834;2022-07-30T03:59:40;12.90;99.90
57026;DHT22;43961;52.940;6.834;2022-07-30T04:02:07;12.90;99.90
57026;DHT22;43961;52.940;6.834;2022-07-30T04:04:33;12.90;99.90
57026;DHT22;43961;52.940;6.834;2022-07-30T04:06:59;12.80;99.90
57026;DHT22;43961;52.940;6.834;2022-07-30T04:09:24;12.90;99.90
57026;DHT22;43961;52.940;6.834;2022-07-30T04:11:51;12.90;99.90
57026;DHT22;43961;52.940;6.834;2022-07-30T04:14:43;12.90;99.90
57026;DHT22;43961;52.940;6.834;2022-07-30T04:17:20;12.90;99.90
57026;DHT22;43961;52.940;6.834;2022-07-30T04:19:56;12.90;99.90
57026;DHT22;43961;52.940;6.834;2022-07-30T04:22:32;12.90;99.90
57026;DHT22;43961;52.940;6.834;2022-07-30T04:25:00;12.90;99.90
57026;DHT22;43961;52.940;6.834;2022-07-30T04:27:28;13.00;99.90
57026;DHT22;43961;52.940;6.834;2022-07-30T04:29:55;13.10;99.90
57026;DHT22;43961;52.940;6.834;2022-07-30T04:32:21;13.30;99.90
57026;DHT22;43961;52.940;6.834;2022-07-30T04:34:48;13.40;99.90
57026;DHT22;43961;52.940;6.834;2022-07-30T04:37:16;13.50;99.90
57026;DHT22;43961;52.940;6.834;2022-07-30T04:39:42;13.50;99.90
57026;DHT22;43961;52.940;6.834;2022-07-30T04:42:08;13.50;99.90
57026;DHT22;43961;52.940;6.834;2022-07-30T04:44:34;13.50;99.90
57026;DHT22;43961;52.940;6.834;2022-07-30T04:47:00;13.50;99.90
57026;DHT22;43961;52.940;6.834;2022-07-30T04:49:26;13.50;99.90
57026;DHT22;43961;52.940;6.834;2022-07-30T04:51:53;13.50;99.90
57026;DHT22;43961;52.940;6.834;2022-07-30T04:54:20;13.50;99.90
57026;DHT22;43961;52.940;6.834;2022-07-30T04:56:46;13.50;99.90
57026;DHT22;43961;52.940;6.834;2022-07-30T04:59:15;13.50;99.90
57026;DHT22;43961;52.940;6.834;2022-07-30T05:01:44;13.50;99.90
57026;DHT22;43961;52.940;6.834;2022-07-30T05:04:12;13.60;99.90
57026;DHT22;43961;52.940;6.834;2022-07-30T05:06:39;13.60;99.90
57026;DHT22;43961;52.940;6.834;2022-07-30T05:09:06;13.60;99.90
57026;DHT22;43961;52.940;6.834;2022-07-30T05:11:32;13.70;99.90
57026;DHT22;43961;52.940;6.834;2022-07-30T05:13:57;13.70;99.90
57026;DHT22;43961;52.940;6.834;2022-07-30T05:16:23;13.80;99.90
57026;DHT22;43961;52.940;6.834;2022-07-30T05:18:49;13.80;99.90
57026;DHT22;43961;52.940;6.834;2022-07-30T05:21:15;13.80;99.90
57026;DHT22;43961;52.940;6.834;2022-07-30T05:23:47;13.90;99.90
57026;DHT22;43961;52.940;6.834;2022-07-30T05:26:13;14.00;99.90
57026;DHT22;43961;52.940;6.834;2022-07-30T05:28:38;14.00;99.90
57026;DHT22;43961;52.940;6.834;2022-07-30T05:31:04;14.10;99.90
57026;DHT22;43961;52.940;6.834;2022-07-30T05:33:30;14.10;99.90
57026;DHT22;43961;52.940;6.834;2022-07-30T05:35:56;14.20;99.90
57026;DHT22;43961;52.940;6.834;2022-07-30T05:38:24;14.30;99.90
57026;DHT22;43961;52.940;6.834;2022-07-30T05:40:50;14.30;99.90
57026;DHT22;43961;52.940;6.834;2022-07-30T05:43:15;14.40;99.90
57026;DHT22;43961;52.940;6.834;2022-07-30T05:45:41;14.50;99.90
57026;DHT22;43961;52.940;6.834;2022-07-30T05:48:07;14.60;99.90
57026;DHT22;43961;52.940;6.834;2022-07-30T05:50:33;14.70;99.90
57026;DHT22;43961;52.940;6.834;2022-07-30T05:52:59;14.80;99.90
57026;DHT22;43961;52.940;6.834;2022-07-30T05:55:24;14.80;99.90
57026;DHT22;43961;52.940;6.834;2022-07-30T05:57:51;14.90;99.90
57026;DHT22;43961;52.940;6.834;2022-07-30T06:00:17;15.00;99.90
57026;DHT22;43961;52.940;6.834;2022-07-30T06:02:43;15.10;99.90
57026;DHT22;43961;52.940;6.834;2022-07-30T06:05:08;15.10;99.90
57026;DHT22;43961;52.940;6.834;2022-07-30T06:07:34;15.20;99.90
57026;DHT22;43961;52.940;6.834;2022-07-30T06:10:00;15.30;99.90
57026;DHT22;43961;52.940;6.834;2022-07-30T06:12:27;15.30;99.90
57026;DHT22;43961;52.940;6.834;2022-07-30T06:14:53;15.40;99.90
57026;DHT22;43961;52.940;6.834;2022-07-30T06:17:20;15.50;99.90
57026;DHT22;43961;52.940;6.834;2022-07-30T06:19:46;15.50;99.90
57026;DHT22;43961;52.940;6.834;2022-07-30T06:22:11;15.60;99.90
57026;DHT22;43961;52.940;6.834;2022-07-30T06:24:37;15.70;99.90
57026;DHT22;43961;52.940;6.834;2022-07-30T06:27:03;15.80;99.90
57026;DHT22;43961;52.940;6.834;2022-07-30T06:29:29;15.90;99.90
57026;DHT22;43961;52.940;6.834;2022-07-30T06:31:55;15.90;99.90
57026;DHT22;43961;52.940;6.834;2022-07-30T06:34:21;16.00;99.90
57026;DHT22;43961;52.940;6.834;2022-07-30T06:36:47;16.10;99.90
57026;DHT22;43961;52.940;6.834;2022-07-30T06:39:13;16.20;99.90
57026;DHT22;43961;52.940;6.834;2022-07-30T06:41:38;16.20;99.90
57026;DHT22;43961;52.940;6.834;2022-07-30T06:44:04;16.30;99.90
57026;DHT22;43961;52.940;6.834;2022-07-30T06:46:30;16.40;99.90
57026;DHT22;43961;52.940;6.834;2022-07-30T06:48:55;16.60;99.90
57026;DHT22;43961;52.940;6.834;2022-07-30T06:51:21;16.70;99.90
57026;DHT22;43961;52.940;6.834;2022-07-30T06:53:47;17.00;99.90
57026;DHT22;43961;52.940;6.834;2022-07-30T06:56:13;17.20;99.90
57026;DHT22;43961;52.940;6.834;2022-07-30T06:58:39;17.50;99.90
57026;DHT22;43961;52.940;6.834;2022-07-30T07:01:05;17.80;99.90
57026;DHT22;43961;52.940;6.834;2022-07-30T07:03:31;18.10;99.90
57026;DHT22;43961;52.940;6.834;2022-07-30T07:05:56;18.40;99.90
57026;DHT22;43961;52.940;6.834;2022-07-30T07:08:22;18.70;99.90
57026;DHT22;43961;52.940;6.834;2022-07-30T07:10:48;19.00;99.90
57026;DHT22;43961;52.940;6.834;2022-07-30T07:13:14;19.30;99.90
57026;DHT22;43961;52.940;6.834;2022-07-30T07:15:41;19.60;99.90
57026;DHT22;43961;52.940;6.834;2022-07-30T07:18:06;19.90;99.90
57026;DHT22;43961;52.940;6.834;2022-07-30T07:20:33;20.10;99.90
57026;DHT22;43961;52.940;6.834;2022-07-30T07:22:59;20.30;99.90
57026;DHT22;43961;52.940;6.834;2022-07-30T07:25:25;20.50;99.90
57026;DHT22;43961;52.940;6.834;2022-07-30T07:27:51;20.60;99.90
57026;DHT22;43961;52.940;6.834;2022-07-30T07:30:16;21.00;99.90
57026;DHT22;43961;52.940;6.834;2022-07-30T07:32:42;21.30;99.90
57026;DHT22;43961;52.940;6.834;2022-07-30T07:35:10;21.50;99.90
57026;DHT22;43961;52.940;6.834;2022-07-30T07:37:41;21.60;99.90
57026;DHT22;43961;52.940;6.834;2022-07-30T07:40:07;21.80;99.90
57026;DHT22;43961;52.940;6.834;2022-07-30T07:42:33;22.10;99.90
57026;DHT22;43961;52.940;6.834;2022-07-30T07:44:58;22.30;99.90
57026;DHT22;43961;52.940;6.834;2022-07-30T07:47:24;22.40;99.90
57026;DHT22;43961;52.940;6.834;2022-07-30T07:49:54;22.60;99.90
57026;DHT22;43961;52.940;6.834;2022-07-30T07:52:19;22.90;99.90
57026;DHT22;43961;52.940;6.834;2022-07-30T07:54:45;22.90;99.90
57026;DHT22;43961;52.940;6.834;2022-07-30T07:57:11;23.10;99.90
57026;DHT22;43961;52.940;6.834;2022-07-30T07:59:37;23.30;99.90
57026;DHT22;43961;52.940;6.834;2022-07-30T08:02:03;23.50;99.90
57026;DHT22;43961;52.940;6.834;2022-07-30T08:04:28;23.70;99.90
57026;DHT22;43961;52.940;6.834;2022-07-30T08:06:55;23.80;99.90
57026;DHT22;43961;52.940;6.834;2022-07-30T08:09:20;23.90;99.90
57026;DHT22;43961;52.940;6.834;2022-07-30T08:11:46;23.90;99.90
57026;DHT22;43961;52.940;6.834;2022-07-30T08:14:12;24.00;99.90
57026;DHT22;43961;52.940;6.834;2022-07-30T08:16:38;24.20;99.90
57026;DHT22;43961;52.940;6.834;2022-07-30T08:19:04;24.30;99.90
57026;DHT22;43961;52.940;6.834;2022-07-30T08:21:30;24.40;99.90
57026;DHT22;43961;52.940;6.834;2022-07-30T08:23:55;24.30;99.90
57026;DHT22;43961;52.940;6.834;2022-07-30T08:26:21;24.20;99.90
57026;DHT22;43961;52.940;6.834;2022-07-30T08:28:47;24.20;99.90
57026;DHT22;43961;52.940;6.834;2022-07-30T08:31:13;24.30;99.90
57026;DHT22;43961;52.940;6.834;2022-07-30T08:33:41;24.40;99.90
57026;DHT22;43961;52.940;6.834;2022-07-30T08:36:08;24.50;99.90
57026;DHT22;43961;52.940;6.834;2022-07-30T08:38:33;24.70;99.90
57026;DHT22;43961;52.940;6.834;2022-07-30T08:40:59;24.60;99.90
57026;DHT22;43961;52.940;6.834;2022-07-30T08:43:26;24.70;99.90
57026;DHT22;43961;52.940;6.834;2022-07-30T08:45:53;24.60;99.90
57026;DHT22;43961;52.940;6.834;2022-07-30T08:48:20;24.60;99.90
57026;DHT22;43961;52.940;6.834;2022-07-30T08:50:49;24.80;99.90
57026;DHT22;43961;52.940;6.834;2022-07-30T08:53:16;24.80;99.90
57026;DHT22;43961;52.940;6.834;2022-07-30T08:55:43;24.90;99.90
57026;DHT22;43961;52.940;6.834;2022-07-30T08:58:23;24.90;99.90
57026;DHT22;43961;52.940;6.834;2022-07-30T09:00:50;25.20;99.90
57026;DHT22;43961;52.940;6.834;2022-07-30T09:03:16;25.20;99.90
57026;DHT22;43961;52.940;6.834;2022-07-30T09:05:42;25.40;99.90
57026;DHT22;43961;52.940;6.834;2022-07-30T09:08:08;25.50;99.90
57026;DHT22;43961;52.940;6.834;2022-07-30T09:10:33;25.60;99.90
57026;DHT22;43961;52.940;6.834;2022-07-30T09:12:59;26.00;99.90
57026;DHT22;43961;52.940;6.834;2022-07-30T09:15:25;26.10;99.90
57026;DHT22;43961;52.940;6.834;2022-07-30T09:18:00;26.20;99.90
57026;DHT22;43961;52.940;6.834;2022-07-30T09:20:31;26.20;99.90
57026;DHT22;43961;52.940;6.834;2022-07-30T09:23:00;26.10;99.90
57026;DHT22;43961;52.940;6.834;2022-07-30T09:25:38;26.30;99.90
57026;DHT22;43961;52.940;6.834;2022-07-30T09:28:08;26.40;99.90
57026;DHT22;43961;52.940;6.834;2022-07-30T09:33:11;26.40;99.90
57026;DHT22;43961;52.940;6.834;2022-07-30T09:35:37;26.50;99.90
57026;DHT22;43961;52.940;6.834;2022-07-30T09:38:03;26.80;99.90
57026;DHT22;43961;52.940;6.834;2022-07-30T09:40:30;26.70;99.90
57026;DHT22;43961;52.940;6.834;2022-07-30T09:43:09;26.80;99.90
57026;DHT22;43961;52.940;6.834;2022-07-30T09:45:35;26.90;99.90
57026;DHT22;43961;52.940;6.834;2022-07-30T09:48:02;26.90;99.90
57026;DHT22;43961;52.940;6.834;2022-07-30T09:50:49;27.00;96.70
57026;DHT22;43961;52.940;6.834;2022-07-30T09:53:15;26.90;88.60
57026;DHT22;43961;52.940;6.834;2022-07-30T09:55:41;27.00;93.40
57026;DHT22;43961;52.940;6.834;2022-07-30T09:58:07;27.00;91.50
57026;DHT22;43961;52.940;6.834;2022-07-30T10:00:34;26.90;94.00
57026;DHT22;43961;52.940;6.834;2022-07-30T10:03:01;27.20;94.70
57026;DHT22;43961;52.940;6.834;2022-07-30T10:05:42;27.30;95.10
57026;DHT22;43961;52.940;6.834;2022-07-30T10:08:13;27.40;93.60
57026;DHT22;43961;52.940;6.834;2022-07-30T10:10:39;27.50;90.50
57026;DHT22;43961;52.940;6.834;2022-07-30T10:13:05;27.60;91.20
57026;DHT22;43961;52.940;6.834;2022-07-30T10:15:35;27.70;90.90
57026;DHT22;43961;52.940;6.834;2022-07-30T10:18:03;27.70;82.90
57026;DHT22;43961;52.940;6.834;2022-07-30T10:20:29;27.70;85.30
57026;DHT22;43961;52.940;6.834;2022-07-30T10:22:55;27.40;82.10
57026;DHT22;43961;52.940;6.834;2022-07-30T10:25:24;27.30;82.00
57026;DHT22;43961;52.940;6.834;2022-07-30T10:27:50;27.40;80.00
57026;DHT22;43961;52.940;6.834;2022-07-30T10:30:17;27.20;77.90
57026;DHT22;43961;52.940;6.834;2022-07-30T10:32:43;27.10;81.70
57026;DHT22;43961;52.940;6.834;2022-07-30T10:35:10;27.30;81.10
57026;DHT22;43961;52.940;6.834;2022-07-30T10:37:41;27.30;84.00
57026;DHT22;43961;52.940;6.834;2022-07-30T10:48:24;27.70;74.90
57026;DHT22;43961;52.940;6.834;2022-07-30T10:50:56;27.70;71.50
57026;DHT22;43961;52.940;6.834;2022-07-30T10:53:41;27.80;71.10
57026;DHT22;43961;52.940;6.834;2022-07-30T10:56:18;28.00;72.20
57026;DHT22;43961;52.940;6.834;2022-07-30T10:59:06;28.20;72.50
57026;DHT22;43961;52.940;6.834;2022-07-30T11:06:47;28.00;69.70
57026;DHT22;43961;52.940;6.834;2022-07-30T11:09:36;27.70;70.80
57026;DHT22;43961;52.940;6.834;2022-07-30T11:12:02;27.80;66.30
57026;DHT22;43961;52.940;6.834;2022-07-30T11:17:13;28.10;67.00
57026;DHT22;43961;52.940;6.834;2022-07-30T11:22:27;28.30;67.20
57026;DHT22;43961;52.940;6.834;2022-07-30T11:24:56;28.50;67.10
57026;DHT22;43961;52.940;6.834;2022-07-30T11:27:43;28.30;64.60
57026;DHT22;43961;52.940;6.834;2022-07-30T11:32:52;28.10;67.30
57026;DHT22;43961;52.940;6.834;2022-07-30T11:35:27;28.30;67.60
57026;DHT22;43961;52.940;6.834;2022-07-30T11:38:08;28.20;66.30
57026;DHT22;43961;52.940;6.834;2022-07-30T11:40:34;28.20;68.20
57026;DHT22;43961;52.940;6.834;2022-07-30T11:45:46;28.10;62.80
57026;DHT22;43961;52.940;6.834;2022-07-30T11:48:14;27.80;62.50
57026;DHT22;43961;52.940;6.834;2022-07-30T11:50:42;27.90;63.70
57026;DHT22;43961;52.940;6.834;2022-07-30T11:53:16;27.90;60.50
57026;DHT22;43961;52.940;6.834;2022-07-30T11:55:44;28.00;57.30
57026;DHT22;43961;52.940;6.834;2022-07-30T11:58:41;28.10;58.30
57026;DHT22;43961;52.940;6.834;2022-07-30T12:01:19;28.30;50.70
57026;DHT22;43961;52.940;6.834;2022-07-30T12:03:49;28.30;53.60
57026;DHT22;43961;52.940;6.834;2022-07-30T12:06:15;28.30;57.50
57026;DHT22;43961;52.940;6.834;2022-07-30T12:08:47;28.40;58.30
57026;DHT22;43961;52.940;6.834;2022-07-30T12:11:13;28.50;58.30
57026;DHT22;43961;52.940;6.834;2022-07-30T12:13:41;28.40;55.60
57026;DHT22;43961;52.940;6.834;2022-07-30T12:16:12;28.20;56.80
57026;DHT22;43961;52.940;6.834;2022-07-30T12:18:38;28.30;57.50
57026;DHT22;43961;52.940;6.834;2022-07-30T12:21:05;28.40;57.80
57026;DHT22;43961;52.940;6.834;2022-07-30T12:23:52;28.50;58.00
57026;DHT22;43961;52.940;6.834;2022-07-30T12:26:26;28.70;58.70
57026;DHT22;43961;52.940;6.834;2022-07-30T12:28:57;28.80;58.30
57026;DHT22;43961;52.940;6.834;2022-07-30T12:31:26;28.60;58.10
57026;DHT22;43961;52.940;6.834;2022-07-30T12:33:52;28.60;58.20
57026;DHT22;43961;52.940;6.834;2022-07-30T12:36:29;28.60;55.60
57026;DHT22;43961;52.940;6.834;2022-07-30T12:38:55;28.60;56.60
57026;DHT22;43961;52.940;6.834;2022-07-30T12:41:38;28.60;57.70
57026;DHT22;43961;52.940;6.834;2022-07-30T12:44:05;28.60;57.30
57026;DHT22;43961;52.940;6.834;2022-07-30T12:46:37;28.70;57.80
57026;DHT22;43961;52.940;6.834;2022-07-30T12:49:04;28.70;57.30
57026;DHT22;43961;52.940;6.834;2022-07-30T12:51:39;28.50;56.30
57026;DHT22;43961;52.940;6.834;2022-07-30T12:54:18;28.40;55.50
57026;DHT22;43961;52.940;6.834;2022-07-30T12:57:01;28.30;55.90
57026;DHT22;43961;52.940;6.834;2022-07-30T12:59:28;28.30;54.60
57026;DHT22;43961;52.940;6.834;2022-07-30T13:01:54;28.20;54.60
57026;DHT22;43961;52.940;6.834;2022-07-30T13:04:22;28.20;55.30
57026;DHT22;43961;52.940;6.834;2022-07-30T13:07:08;28.40;55.30
57026;DHT22;43961;52.940;6.834;2022-07-30T13:09:35;28.40;55.30
57026;DHT22;43961;52.940;6.834;2022-07-30T13:12:01;28.50;55.20
57026;DHT22;43961;52.940;6.834;2022-07-30T13:14:27;28.40;55.00
57026;DHT22;43961;52.940;6.834;2022-07-30T13:16:54;28.40;54.80
57026;DHT22;43961;52.940;6.834;2022-07-30T13:19:21;28.20;54.70
57026;DHT22;43961;52.940;6.834;2022-07-30T13:21:47;28.10;55.50
57026;DHT22;43961;52.940;6.834;2022-07-30T13:24:13;28.20;55.00
57026;DHT22;43961;52.940;6.834;2022-07-30T13:26:39;28.20;55.30
57026;DHT22;43961;52.940;6.834;2022-07-30T13:29:09;28.30;55.60
57026;DHT22;43961;52.940;6.834;2022-07-30T13:31:38;28.30;54.30
57026;DHT22;43961;52.940;6.834;2022-07-30T13:34:05;28.10;53.00
57026;DHT22;43961;52.940;6.834;2022-07-30T13:36:30;27.90;53.70
57026;DHT22;43961;52.940;6.834;2022-07-30T13:38:56;27.80;54.40
57026;DHT22;43961;52.940;6.834;2022-07-30T13:41:23;27.90;54.30
57026;DHT22;43961;52.940;6.834;2022-07-30T13:43:49;27.90;53.80
57026;DHT22;43961;52.940;6.834;2022-07-30T13:46:14;27.90;54.60
57026;DHT22;43961;52.940;6.834;2022-07-30T13:48:40;27.80;53.70
57026;DHT22;43961;52.940;6.834;2022-07-30T13:51:06;27.90;53.40
57026;DHT22;43961;52.940;6.834;2022-07-30T13:53:32;27.80;53.40
57026;DHT22;43961;52.940;6.834;2022-07-30T13:55:58;27.80;52.80
57026;DHT22;43961;52.940;6.834;2022-07-30T13:58:24;27.80;53.20
57026;DHT22;43961;52.940;6.834;2022-07-30T14:00:50;27.70;52.80
57026;DHT22;43961;52.940;6.834;2022-07-30T14:03:16;27.70;52.20
57026;DHT22;43961;52.940;6.834;2022-07-30T14:05:43;27.60;52.60
57026;DHT22;43961;52.940;6.834;2022-07-30T14:08:09;27.70;53.00
57026;DHT22;43961;52.940;6.834;2022-07-30T14:10:36;27.70;53.00
57026;DHT22;43961;52.940;6.834;2022-07-30T14:13:03;27.50;53.00
57026;DHT22;43961;52.940;6.834;2022-07-30T14:15:29;27.50;52.90
57026;DHT22;43961;52.940;6.834;2022-07-30T14:17:56;27.60;51.90
57026;DHT22;43961;52.940;6.834;2022-07-30T14:20:23;27.60;50.90
57026;DHT22;43961;52.940;6.834;2022-07-30T14:22:49;27.40;50.30
57026;DHT22;43961;52.940;6.834;2022-07-30T14:25:15;27.50;51.20
57026;DHT22;43961;52.940;6.834;2022-07-30T14:27:41;27.50;51.40
57026;DHT22;43961;52.940;6.834;2022-07-30T14:30:08;27.40;51.80
57026;DHT22;43961;52.940;6.834;2022-07-30T14:32:35;27.30;51.50
57026;DHT22;43961;52.940;6.834;2022-07-30T14:35:01;27.10;50.70
57026;DHT22;43961;52.940;6.834;2022-07-30T14:37:26;27.10;52.10
57026;DHT22;43961;52.940;6.834;2022-07-30T14:39:52;27.20;52.40
57026;DHT22;43961;52.940;6.834;2022-07-30T14:42:18;27.20;52.20
57026;DHT22;43961;52.940;6.834;2022-07-30T14:44:45;27.30;52.40
57026;DHT22;43961;52.940;6.834;2022-07-30T14:47:12;27.20;51.30
57026;DHT22;43961;52.940;6.834;2022-07-30T14:49:38;27.20;51.10
57026;DHT22;43961;52.940;6.834;2022-07-30T14:52:04;27.20;51.70
57026;DHT22;43961;52.940;6.834;2022-07-30T14:54:30;27.10;52.30
57026;DHT22;43961;52.940;6.834;2022-07-30T14:56:56;26.90;52.50
57026;DHT22;43961;52.940;6.834;2022-07-30T14:59:23;26.80;52.50
57026;DHT22;43961;52.940;6.834;2022-07-30T15:01:49;26.70;52.50
57026;DHT22;43961;52.940;6.834;2022-07-30T15:04:15;26.60;52.90
57026;DHT22;43961;52.940;6.834;2022-07-30T15:06:41;26.60;53.10
57026;DHT22;43961;52.940;6.834;2022-07-30T15:09:08;26.70;53.30
57026;DHT22;43961;52.940;6.834;2022-07-30T15:11:34;26.70;52.90
57026;DHT22;43961;52.940;6.834;2022-07-30T15:14:15;26.60;52.60
57026;DHT22;43961;52.940;6.834;2022-07-30T15:16:42;26.60;52.70
57026;DHT22;43961;52.940;6.834;2022-07-30T15:19:08;26.60;52.50
57026;DHT22;43961;52.940;6.834;2022-07-30T15:21:34;26.60;53.40
57026;DHT22;43961;52.940;6.834;2022-07-30T15:23:59;26.60;53.00
57026;DHT22;43961;52.940;6.834;2022-07-30T15:26:25;26.60;53.10
57026;DHT22;43961;52.940;6.834;2022-07-30T15:28:51;26.60;53.30
57026;DHT22;43961;52.940;6.834;2022-07-30T15:31:17;26.50;54.10
57026;DHT22;43961;52.940;6.834;2022-07-30T15:33:43;26.70;54.20
57026;DHT22;43961;52.940;6.834;2022-07-30T15:36:10;26.60;54.00
57026;DHT22;43961;52.940;6.834;2022-07-30T15:38:36;26.60;53.80
57026;DHT22;43961;52.940;6.834;2022-07-30T15:41:02;26.60;54.20
57026;DHT22;43961;52.940;6.834;2022-07-30T15:43:28;26.50;54.40
57026;DHT22;43961;52.940;6.834;2022-07-30T15:45:54;26.40;54.40
57026;DHT22;43961;52.940;6.834;2022-07-30T15:48:20;26.30;54.60
57026;DHT22;43961;52.940;6.834;2022-07-30T15:50:45;26.20;54.70
57026;DHT22;43961;52.940;6.834;2022-07-30T15:53:11;26.20;54.90
57026;DHT22;43961;52.940;6.834;2022-07-30T15:55:37;26.00;55.40
57026;DHT22;43961;52.940;6.834;2022-07-30T15:58:03;26.00;55.20
57026;DHT22;43961;52.940;6.834;2022-07-30T16:00:29;26.00;55.40
57026;DHT22;43961;52.940;6.834;2022-07-30T16:02:55;26.10;55.40
57026;DHT22;43961;52.940;6.834;2022-07-30T16:05:21;26.00;55.60